Time;durP1;ratioP1;P1;durP2;ratioP2;P2;SDS_P1;SDS_P2;PMS_P1;PMS_P2;Temp;Humidity;BMP_temperature;BMP_pressure;BME280_temperature;BME280_humidity;BME280_pressure;Samples;Min_cycle;Max_cycle;Signal;HPM_P1;HPM_P2
2022/06/17 00:00:47;;;;;;;17.35;13.90;;;;;;;20.46;57.05;94951.41;4213122;28;20135;-56
2022/06/17 00:02:49;;;;;;;15.23;12.95;;;;;;;20.43;57.00;94945.69;4216290;28;20052;-54
2022/06/17 00:04:52;;;;;;;16.30;13.95;;;;;;;20.38;57.04;94945.53;4208364;28;20075;-55
2022/06/17 00:07:01;;;;;;;17.77;14.65;;;;;;;20.40;56.95;94943.47;4209627;28;20125;-55
2022/06/17 00:09:04;;;;;;;18.23;13.40;;;;;;;20.38;56.96;94937.56;4196839;28;20051;-56
2022/06/17 00:11:12;;;;;;;16.52;14.30;;;;;;;20.35;56.98;94943.28;4214578;28;20126;-57
2022/06/17 00:13:17;;;;;;;18.42;13.75;;;;;;;20.27;57.07;94941.72;4212213;28;20530;-57
2022/06/17 00:15:19;;;;;;;15.38;13.20;;;;;;;20.21;57.22;94934.59;4206537;28;20048;-57
2022/06/17 00:17:22;;;;;;;17.65;12.60;;;;;;;20.16;57.07;94937.06;4207584;28;20052;-56
2022/06/17 00:19:24;;;;;;;14.05;10.95;;;;;;;20.07;56.65;94933.84;4213168;28;20047;-53
2022/06/17 00:21:28;;;;;;;12.30;11.00;;;;;;;20.03;56.97;94937.97;4218537;28;20593;-57
2022/06/17 00:23:30;;;;;;;14.00;11.07;;;;;;;20.00;56.75;94944.53;4209152;28;20109;-53
2022/06/17 00:25:35;;;;;;;13.98;12.35;;;;;;;19.44;58.54;94951.22;4203470;28;20044;-59
2022/06/17 00:27:37;;;;;;;14.57;12.50;;;;;;;18.92;59.72;94952.88;4198102;28;20114;-55
2022/06/17 00:29:39;;;;;;;17.52;13.10;;;;;;;18.56;60.82;94956.72;4207014;28;20074;-57
2022/06/17 00:31:40;;;;;;;14.73;12.60;;;;;;;18.61;61.06;94956.13;4209110;28;20056;-54
2022/06/17 00:33:43;;;;;;;14.75;13.02;;;;;;;18.78;60.46;94946.78;4213701;28;20036;-56
2022/06/17 00:35:46;;;;;;;17.05;13.30;;;;;;;18.97;59.70;94947.78;4201589;28;20052;-53
2022/06/17 00:37:47;;;;;;;14.63;12.45;;;;;;;19.13;58.76;94951.06;4215553;28;20112;-54
2022/06/17 00:39:49;;;;;;;15.07;12.15;;;;;;;19.26;58.38;94943.06;4202980;28;20105;-55
2022/06/17 00:41:54;;;;;;;16.95;12.30;;;;;;;19.37;57.71;94941.63;4201999;28;20105;-56
2022/06/17 00:43:59;;;;;;;18.30;12.20;;;;;;;19.41;57.58;94945.50;4207254;28;20113;-54
2022/06/17 00:46:05;;;;;;;18.50;12.95;;;;;;;19.13;58.10;94938.59;4206255;28;20063;-56
2022/06/17 00:48:12;;;;;;;17.38;13.40;;;;;;;19.08;58.60;94941.06;4208162;28;20051;-56
2022/06/17 00:50:20;;;;;;;16.42;13.38;;;;;;;18.85;58.58;94935.34;4199322;28;20049;-55
2022/06/17 00:52:29;;;;;;;18.20;13.07;;;;;;;18.63;58.97;94946.94;4193559;28;20059;-51
2022/06/17 00:54:34;;;;;;;16.92;12.93;;;;;;;18.62;59.31;94939.16;4207094;28;20077;-50
2022/06/17 00:56:36;;;;;;;17.33;13.30;;;;;;;18.74;59.10;94932.25;4208194;28;20082;-48
2022/06/17 00:59:15;;;;;;;14.30;12.80;;;;;;;18.88;59.04;94937.56;4207656;28;20109;-51
2022/06/17 01:01:17;;;;;;;15.32;13.23;;;;;;;18.97;58.88;94931.88;4192495;28;20133;-52
2022/06/17 01:03:26;;;;;;;19.10;13.43;;;;;;;18.99;58.83;94932.47;4199973;28;20055;-48
2022/06/17 01:05:32;;;;;;;15.32;13.10;;;;;;;18.99;58.99;94929.00;4210960;28;20063;-50
2022/06/17 01:07:39;;;;;;;16.30;13.18;;;;;;;19.03;58.85;94930.22;4207796;28;20056;-50
2022/06/17 01:10:01;;;;;;;14.30;12.60;;;;;;;19.12;59.07;94925.50;4206271;28;20560;-51
2022/06/17 01:12:05;;;;;;;17.30;13.77;;;;;;;19.14;59.20;94926.13;4206757;28;20074;-52
2022/06/17 01:14:09;;;;;;;23.08;14.60;;;;;;;19.11;59.26;94929.19;4208080;28;20522;-53
2022/06/17 01:16:11;;;;;;;23.88;15.85;;;;;;;19.10;59.38;94933.69;4206683;28;20056;-51
2022/06/17 01:18:13;;;;;;;20.73;15.77;;;;;;;19.09;59.52;94934.69;4202730;28;20090;-52
2022/06/17 01:20:16;;;;;;;21.58;16.05;;;;;;;19.07;59.70;94923.47;4200137;28;20047;-56
2022/06/17 01:22:20;;;;;;;21.48;15.13;;;;;;;19.10;59.78;94923.06;4205482;28;20048;-53
2022/06/17 01:24:22;;;;;;;24.95;16.27;;;;;;;19.14;59.69;94920.81;4201674;28;20661;-53
2022/06/17 01:26:24;;;;;;;24.30;16.10;;;;;;;19.18;59.90;94914.88;4212631;28;20055;-51
2022/06/17 01:28:26;;;;;;;18.75;14.93;;;;;;;19.21;59.66;94918.97;4208602;28;20101;-49
2022/06/17 01:30:58;;;;;;;19.67;14.55;;;;;;;19.21;59.76;94914.47;4209955;28;20101;-52
2022/06/17 01:33:39;;;;;;;22.00;15.35;;;;;;;19.23;59.65;94909.78;4197237;28;20087;-54
2022/06/17 01:35:57;;;;;;;18.77;13.77;;;;;;;19.26;59.42;94905.88;4196890;28;20737;-50
2022/06/17 01:37:59;;;;;;;18.83;13.85;;;;;;;19.24;59.48;94900.75;4217133;28;20108;-51
2022/06/17 01:40:01;;;;;;;18.45;14.52;;;;;;;19.22;59.24;94896.69;4204181;28;20557;-50
2022/06/17 01:42:04;;;;;;;15.13;13.43;;;;;;;19.22;59.28;94899.34;4205652;28;20113;-50
2022/06/17 01:44:18;;;;;;;15.70;13.45;;;;;;;19.20;59.30;94901.41;4215421;28;20108;-52
2022/06/17 01:46:33;;;;;;;20.45;13.60;;;;;;;19.20;59.31;94891.56;4224056;28;20120;-54
2022/06/17 01:48:37;;;;;;;18.45;14.30;;;;;;;19.20;59.50;94902.19;4209498;28;20485;-52
2022/06/17 01:50:40;;;;;;;20.17;15.77;;;;;;;19.16;60.05;94900.97;4205768;28;20469;-51
2022/06/17 01:52:58;;;;;;;21.00;16.35;;;;;;;19.18;60.03;94895.47;4206005;28;20093;-54
2022/06/17 01:55:14;;;;;;;20.05;13.88;;;;;;;19.14;59.96;94895.06;4214468;28;20051;-52
2022/06/17 01:57:19;;;;;;;19.60;14.63;;;;;;;19.09;60.10;94897.53;4208376;28;20132;-52
2022/06/17 01:59:27;;;;;;;16.80;14.27;;;;;;;19.03;59.83;94890.38;4185223;28;20486;-52
2022/06/17 02:01:31;;;;;;;19.90;13.82;;;;;;;18.99;59.95;94902.44;4201855;28;20097;-48
2022/06/17 02:03:57;;;;;;;17.95;13.88;;;;;;;18.92;59.98;94912.25;4192335;28;20783;-50
2022/06/17 02:06:32;;;;;;;16.45;13.52;;;;;;;18.85;60.36;94899.00;4192694;28;20071;-53
2022/06/17 02:08:34;;;;;;;15.10;12.90;;;;;;;18.83;60.27;94899.19;4197617;28;20397;-51
2022/06/17 02:10:39;;;;;;;20.65;13.63;;;;;;;18.83;60.24;94909.00;4201342;28;20109;-50
2022/06/17 02:12:41;;;;;;;20.20;13.65;;;;;;;18.88;60.19;94909.19;4216201;28;20044;-53
2022/06/17 02:14:44;;;;;;;18.33;13.45;;;;;;;18.92;60.41;94920.22;4206180;28;20132;-52
2022/06/17 02:16:50;;;;;;;19.88;13.90;;;;;;;18.94;60.61;94926.16;4210763;28;20070;-51
2022/06/17 02:18:54;;;;;;;15.57;13.55;;;;;;;18.82;60.47;94920.63;4198444;28;20396;-51
2022/06/17 02:20:57;;;;;;;17.83;14.35;;;;;;;18.76;60.77;94921.44;4211535;28;20129;-51
2022/06/17 02:22:59;;;;;;;21.23;15.55;;;;;;;18.76;60.99;94922.25;4208764;28;20385;-49
2022/06/17 02:25:04;;;;;;;17.58;13.75;;;;;;;18.77;61.10;94923.88;4215633;28;20165;-51
2022/06/17 02:27:09;;;;;;;15.70;13.40;;;;;;;18.82;60.54;94925.94;4207506;28;20047;-52
2022/06/17 02:29:12;;;;;;;21.23;13.85;;;;;;;18.85;60.30;94922.06;4216887;28;20097;-53
2022/06/17 02:31:14;;;;;;;16.13;13.27;;;;;;;18.80;60.52;94917.38;4208300;28;20052;-53
2022/06/17 02:33:17;;;;;;;23.90;14.40;;;;;;;18.74;61.12;94926.13;4216038;28;20131;-48
2022/06/17 02:35:38;;;;;;;19.38;14.25;;;;;;;18.76;61.08;94922.25;4206923;28;20220;-51
2022/06/17 02:37:40;;;;;;;23.23;14.20;;;;;;;18.80;60.87;94920.84;4207891;28;20036;-52
2022/06/17 02:39:45;;;;;;;18.38;13.60;;;;;;;18.86;60.64;94921.84;4209641;28;20056;-54
2022/06/17 02:41:48;;;;;;;20.27;13.57;;;;;;;18.88;60.40;94917.16;4216699;28;20044;-54
2022/06/17 02:44:00;;;;;;;14.13;12.25;;;;;;;18.94;60.14;94923.50;4205340;28;20054;-50
2022/06/17 02:46:05;;;;;;;18.23;13.63;;;;;;;18.93;59.98;94925.34;4217602;28;20173;-51
2022/06/17 02:48:29;;;;;;;17.65;13.13;;;;;;;18.70;60.78;94931.00;4205062;28;20382;-49
2022/06/17 02:50:31;;;;;;;15.90;14.18;;;;;;;18.45;61.33;94925.47;4216319;28;20052;-52
2022/06/17 02:52:37;;;;;;;13.90;12.27;;;;;;;17.83;62.62;94921.25;4205966;28;20056;-54
2022/06/17 02:54:42;;;;;;;16.90;13.20;;;;;;;17.51;63.93;94927.00;4195338;28;20045;-52
2022/06/17 02:56:49;;;;;;;19.58;14.27;;;;;;;17.12;65.25;94931.06;4201628;28;20050;-52
2022/06/17 02:59:09;;;;;;;20.95;13.88;;;;;;;16.94;66.27;94925.44;4201635;28;20113;-49
2022/06/17 03:01:17;;;;;;;18.95;14.30;;;;;;;16.96;66.54;94929.50;4205399;28;20142;-51
2022/06/17 03:03:20;;;;;;;16.25;13.85;;;;;;;17.18;65.96;94926.81;4195573;28;20113;-51
2022/06/17 03:05:24;;;;;;;17.13;13.77;;;;;;;17.39;65.04;94918.78;4202148;28;20052;-50
2022/06/17 03:07:28;;;;;;;;;;;;;;;17.60;64.22;94922.34;4207929;28;20060;-49
2022/06/17 03:09:32;;;;;;;17.90;14.45;;;;;;;17.80;64.11;94917.13;4199183;28;19925;-51
2022/06/17 03:11:34;;;;;;;17.52;14.60;;;;;;;17.98;63.19;94916.59;4208830;28;20116;-52
2022/06/17 03:13:47;;;;;;;15.13;13.32;;;;;;;18.14;62.38;94908.28;4203311;28;20735;-51
2022/06/17 03:15:49;;;;;;;16.75;13.82;;;;;;;18.24;61.82;94909.72;4205023;28;20048;-51
2022/06/17 03:17:51;;;;;;;18.08;13.55;;;;;;;18.36;61.65;94916.09;4198994;28;20140;-50
2022/06/17 03:19:55;;;;;;;19.75;13.52;;;;;;;18.47;61.46;94914.66;4203107;28;20101;-51
2022/06/17 03:21:57;;;;;;;15.82;12.75;;;;;;;18.53;61.32;94916.50;4214695;28;20059;-48
2022/06/17 03:24:28;;;;;;;21.92;14.27;;;;;;;18.57;60.74;94923.88;4215960;28;20113;-51
2022/06/17 03:26:36;;;;;;;20.88;13.68;;;;;;;18.60;60.44;94925.28;4206797;28;20060;-53
2022/06/17 03:28:43;;;;;;;18.40;12.70;;;;;;;18.63;60.13;94922.25;4208210;28;20069;-52
2022/06/17 03:30:54;;;;;;;19.63;13.30;;;;;;;18.68;60.29;94919.78;4207590;28;20450;-52
2022/06/17 03:33:21;;;;;;;18.20;12.38;;;;;;;18.75;59.72;94920.59;4196644;28;20305;-54
2022/06/17 03:35:25;;;;;;;16.75;12.15;;;;;;;18.82;59.61;94928.59;4192444;28;20060;-51
2022/06/17 03:37:30;;;;;;;16.15;12.35;;;;;;;18.92;59.55;94925.53;4197774;28;20047;-51
2022/06/17 03:39:41;;;;;;;21.05;12.95;;;;;;;18.98;59.22;94936.13;4199399;28;20441;-50
2022/06/17 03:41:50;;;;;;;16.95;12.18;;;;;;;19.01;59.35;94927.78;4204599;28;20063;-52
2022/06/17 03:43:58;;;;;;;17.60;12.48;;;;;;;19.07;58.94;94939.41;4196204;28;20530;-53
2022/06/17 03:46:04;;;;;;;14.23;11.93;;;;;;;19.11;58.65;94930.00;4205860;28;20135;-52
2022/06/17 03:48:38;;;;;;;15.73;12.52;;;;;;;19.13;58.39;94938.59;4209185;28;20048;-48
2022/06/17 03:50:44;;;;;;;17.57;13.60;;;;;;;19.13;58.75;94943.91;4184159;28;20050;-51
2022/06/17 03:52:56;;;;;;;19.52;12.90;;;;;;;19.18;58.79;94933.47;4205001;28;20338;-52
2022/06/17 03:54:58;;;;;;;15.50;13.00;;;;;;;19.22;58.51;94947.97;4197573;28;20684;-48
2022/06/17 03:57:01;;;;;;;19.27;12.70;;;;;;;19.23;58.59;94949.59;4204455;28;20499;-50
2022/06/17 03:59:06;;;;;;;16.50;13.32;;;;;;;18.75;59.85;94949.78;4205299;28;20055;-50
2022/06/17 04:01:29;;;;;;;16.25;13.00;;;;;;;18.35;61.30;94963.00;4201640;28;20044;-51
2022/06/17 04:03:33;;;;;;;21.48;13.70;;;;;;;18.35;61.57;94955.06;4207164;28;20485;-52
2022/06/17 04:05:35;;;;;;;;;;;;;;;18.32;61.94;94958.09;4199996;28;20136;-49
2022/06/17 04:07:36;;;;;;;19.15;13.80;;;;;;;18.51;61.47;94953.84;4209001;28;20024;-50
2022/06/17 04:09:44;;;;;;;18.98;13.50;;;;;;;18.71;60.64;94950.41;4207130;28;20056;-52
2022/06/17 04:11:51;;;;;;;18.00;14.20;;;;;;;18.82;60.41;94958.63;4206342;28;20094;-52
2022/06/17 04:13:54;;;;;;;20.63;14.32;;;;;;;18.95;60.08;94957.81;4219585;28;20125;-53
2022/06/17 04:16:05;;;;;;;14.55;12.45;;;;;;;18.86;59.96;94964.31;4208724;28;20055;-52
2022/06/17 04:18:08;;;;;;;14.40;11.35;;;;;;;18.23;61.74;94969.91;4207134;28;20048;-50
2022/06/17 04:20:37;;;;;;;19.33;14.57;;;;;;;17.88;63.48;94967.34;4202842;28;20193;-51
2022/06/17 04:22:40;;;;;;;17.33;13.98;;;;;;;17.69;63.99;94973.34;4203410;28;20469;-50
2022/06/17 04:24:44;;;;;;;18.42;12.40;;;;;;;17.41;64.47;94976.84;4207538;28;20140;-52
2022/06/17 04:26:49;;;;;;;18.80;13.32;;;;;;;17.36;65.09;94973.97;4175805;28;20048;-53
2022/06/17 04:28:53;;;;;;;17.80;12.88;;;;;;;17.32;65.09;94972.72;4213385;28;20531;-51
2022/06/17 04:30:59;;;;;;;17.02;13.45;;;;;;;17.55;65.06;94962.69;4212892;28;20052;-50
2022/06/17 04:33:05;;;;;;;17.30;12.00;;;;;;;17.73;64.17;94969.28;4208611;28;20101;-49
2022/06/17 04:35:11;;;;;;;13.13;11.65;;;;;;;17.76;63.26;94968.88;4206241;28;20048;-49
2022/06/17 04:37:20;;;;;;;18.27;11.48;;;;;;;17.89;63.29;94952.25;4219221;28;20498;-52
2022/06/17 04:39:32;;;;;;;14.25;11.00;;;;;;;18.13;62.52;94953.56;4206469;28;20063;-52
2022/06/17 04:41:36;;;;;;;17.92;11.63;;;;;;;18.35;62.06;94957.72;4194468;28;20059;-50
2022/06/17 04:43:47;;;;;;;17.08;10.85;;;;;;;18.61;61.28;94966.72;4205667;28;20369;-50
2022/06/17 04:45:58;;;;;;;14.25;11.57;;;;;;;18.86;60.55;94961.66;4205551;28;20068;-53
2022/06/17 04:48:01;;;;;;;16.90;11.32;;;;;;;19.04;60.20;94953.09;4207271;28;20044;-51
2022/06/17 04:50:05;;;;;;;16.13;11.25;;;;;;;19.13;59.62;94959.81;4195765;28;20125;-50
2022/06/17 04:52:36;;;;;;;15.63;11.27;;;;;;;19.14;60.04;94966.75;4206741;28;20047;-52
2022/06/17 04:54:39;;;;;;;18.13;12.23;;;;;;;19.26;59.53;94963.50;4197098;28;20125;-49
2022/06/17 04:56:46;;;;;;;17.47;11.80;;;;;;;19.20;59.86;94960.63;4203519;28;20052;-51
2022/06/17 04:58:48;;;;;;;19.88;11.68;;;;;;;19.29;59.28;94963.06;4206695;28;20048;-50
2022/06/17 05:00:54;;;;;;;19.40;11.95;;;;;;;19.30;59.64;94965.53;4206255;28;20145;-50
2022/06/17 05:02:57;;;;;;;18.88;11.45;;;;;;;19.17;59.68;94962.91;4194396;28;20075;-50
2022/06/17 05:05:03;;;;;;;13.50;11.07;;;;;;;19.28;59.78;94961.47;4200961;28;20557;-54
2022/06/17 05:07:05;;;;;;;14.05;11.10;;;;;;;19.14;59.57;94958.78;4211356;28;20056;-52
2022/06/17 05:09:20;;;;;;;13.45;11.88;;;;;;;19.01;60.16;94957.00;4207914;28;20105;-50
2022/06/17 05:11:28;;;;;;;18.65;12.10;;;;;;;19.14;59.67;94957.97;4200584;28;20044;-53
2022/06/17 05:13:52;;;;;;;17.73;11.10;;;;;;;19.33;59.24;94959.78;4206663;28;20077;-52
2022/06/17 05:15:54;;;;;;;14.93;11.82;;;;;;;19.49;58.90;94958.56;4208604;28;20048;-54
2022/06/17 05:17:56;;;;;;;13.55;10.80;;;;;;;19.66;58.39;94953.63;4208075;28;20135;-52
2022/06/17 05:19:58;;;;;;;16.48;11.38;;;;;;;19.81;57.94;94961.34;4210864;28;20106;-51
2022/06/17 05:22:02;;;;;;;15.73;11.80;;;;;;;19.96;57.70;94953.09;4208465;28;20044;-50
2022/06/17 05:24:04;;;;;;;17.13;11.98;;;;;;;20.08;57.14;94959.41;4209248;28;20530;-49
2022/06/17 05:26:07;;;;;;;17.67;11.75;;;;;;;20.14;56.98;94968.38;4211229;28;20671;-49
2022/06/17 05:28:13;;;;;;;12.85;11.43;;;;;;;20.20;56.90;94959.56;4211356;28;20460;-50
2022/06/17 05:30:15;;;;;;;18.25;11.27;;;;;;;20.16;56.73;94955.69;4219885;28;20044;-49
2022/06/17 05:32:18;;;;;;;14.02;11.45;;;;;;;20.19;56.89;94952.59;4214362;28;20275;-52
2022/06/17 05:34:20;;;;;;;15.02;10.38;;;;;;;19.90;56.86;94954.78;4223107;28;20131;-49
2022/06/17 05:36:22;;;;;;;18.98;11.10;;;;;;;19.81;57.79;94956.84;4202338;28;20060;-48
2022/06/17 05:38:24;;;;;;;14.00;11.07;;;;;;;19.88;57.73;94956.84;4210635;28;20064;-52
2022/06/17 05:40:26;;;;;;;23.75;11.55;;;;;;;19.86;57.94;94944.78;4210776;28;20093;-47
2022/06/17 05:42:28;;;;;;;17.13;11.00;;;;;;;20.04;57.70;94945.69;4201852;28;20056;-49
2022/06/17 05:44:30;;;;;;;16.80;10.40;;;;;;;20.28;57.47;94942.53;4198211;28;20068;-49
2022/06/17 05:46:32;;;;;;;15.32;11.00;;;;;;;20.48;56.75;94945.06;4205818;28;20136;-51
2022/06/17 05:48:34;;;;;;;13.77;10.70;;;;;;;20.68;55.73;94945.78;4199074;28;20508;-53
2022/06/17 05:50:35;;;;;;;18.85;10.05;;;;;;;20.87;55.13;94938.69;4221314;28;20108;-49
2022/06/17 05:52:56;;;;;;;16.38;9.88;;;;;;;20.81;55.13;94939.53;4210042;28;20059;-49
2022/06/17 05:55:02;;;;;;;13.52;10.30;;;;;;;20.77;55.10;94938.34;4209813;28;20117;-50
2022/06/17 05:57:04;;;;;;;18.48;9.60;;;;;;;20.79;55.20;94937.09;4209851;28;20044;-53
2022/06/17 05:59:06;;;;;;;18.38;9.15;;;;;;;20.94;54.96;94939.44;4209150;28;20145;-48
2022/06/17 06:01:08;;;;;;;13.85;8.75;;;;;;;21.15;54.43;94942.75;4204770;28;20470;-54
2022/06/17 06:03:17;;;;;;;9.18;7.72;;;;;;;21.32;53.61;94940.34;4198950;28;20121;-53
2022/06/17 06:05:21;;;;;;;14.95;8.57;;;;;;;21.38;53.49;94936.78;4210767;28;20044;-50
2022/06/17 06:07:22;;;;;;;;;;;;;;;21.29;53.46;94946.91;4210705;28;20052;-52
2022/06/17 06:09:25;;;;;;;13.55;8.80;;;;;;;21.27;53.33;94933.81;4220305;28;19977;-49
2022/06/17 06:11:27;;;;;;;11.63;8.25;;;;;;;21.36;52.96;94936.19;4204005;28;20056;-52
2022/06/17 06:13:29;;;;;;;12.75;8.40;;;;;;;21.46;53.21;94925.88;4207229;28;20128;-54
2022/06/17 06:15:39;;;;;;;10.65;8.02;;;;;;;21.28;53.23;94929.31;4209549;28;20055;-52
2022/06/17 06:17:45;;;;;;;13.15;8.05;;;;;;;21.27;53.75;94935.66;4209151;28;20039;-50
2022/06/17 06:19:47;;;;;;;13.77;7.97;;;;;;;21.41;53.42;94939.03;4210191;28;20048;-49
2022/06/17 06:21:48;;;;;;;12.20;7.45;;;;;;;21.53;52.66;94931.97;4215081;28;20120;-52
2022/06/17 06:23:50;;;;;;;9.23;7.25;;;;;;;21.66;52.41;94929.16;4218087;28;20125;-50
2022/06/17 06:25:52;;;;;;;9.95;7.93;;;;;;;21.79;52.06;94928.19;4200754;28;20048;-50
2022/06/17 06:27:54;;;;;;;13.40;7.05;;;;;;;21.92;51.79;94929.03;4205378;28;20160;-53
2022/06/17 06:29:55;;;;;;;9.50;7.18;;;;;;;22.04;51.79;94927.25;4191565;28;20052;-52
2022/06/17 06:31:57;;;;;;;10.77;6.63;;;;;;;22.18;51.23;94922.56;4200687;28;20112;-53
2022/06/17 06:33:59;;;;;;;10.10;6.72;;;;;;;22.14;50.66;94929.41;4220535;28;20535;-51
2022/06/17 06:36:00;;;;;;;11.18;6.30;;;;;;;21.97;50.80;94922.00;4217517;28;20143;-52
2022/06/17 06:38:03;;;;;;;14.63;6.93;;;;;;;21.99;51.09;94919.94;4215122;28;20105;-53
2022/06/17 06:40:06;;;;;;;10.27;6.43;;;;;;;22.00;50.97;94918.06;4208808;28;20048;-53
2022/06/17 06:42:08;;;;;;;8.43;5.82;;;;;;;21.97;51.47;94922.00;4209824;28;20256;-51
2022/06/17 06:44:09;;;;;;;15.80;5.93;;;;;;;21.93;52.04;94922.69;4216091;28;20071;-47
2022/06/17 06:46:14;;;;;;;12.13;5.50;;;;;;;22.07;51.16;94922.28;4216388;28;20087;-50
2022/06/17 06:48:24;;;;;;;7.68;6.32;;;;;;;22.19;51.26;94918.84;4209646;28;20258;-52
2022/06/17 06:50:28;;;;;;;8.05;5.68;;;;;;;21.87;50.47;94914.53;4208783;28;20082;-53
2022/06/17 06:52:30;;;;;;;9.00;6.10;;;;;;;21.30;51.71;94923.75;4223147;28;20088;-51
2022/06/17 06:54:32;;;;;;;13.63;5.82;;;;;;;21.27;51.84;94923.16;4209904;28;20494;-52
2022/06/17 06:56:33;;;;;;;8.93;5.63;;;;;;;21.37;52.41;94925.31;4207896;28;20052;-52
2022/06/17 06:58:35;;;;;;;8.38;5.57;;;;;;;21.60;52.51;94921.22;4204718;28;20109;-50
2022/06/17 07:00:41;;;;;;;8.25;5.85;;;;;;;21.79;51.32;94922.00;4208264;28;20085;-50
2022/06/17 07:02:43;;;;;;;10.05;6.15;;;;;;;21.81;51.12;94918.09;4207564;28;20106;-55
2022/06/17 07:04:46;;;;;;;11.30;6.03;;;;;;;21.77;51.13;94919.59;4196630;28;20047;-50
2022/06/17 07:06:48;;;;;;;15.40;6.53;;;;;;;21.72;51.92;94915.94;4209834;28;20059;-50
2022/06/17 07:08:49;;;;;;;8.82;6.28;;;;;;;21.69;51.64;94914.56;4209337;28;20617;-51
2022/06/17 07:10:53;;;;;;;14.68;7.32;;;;;;;21.52;52.09;94919.66;4209131;28;20129;-52
2022/06/17 07:12:55;;;;;;;11.10;6.57;;;;;;;21.48;52.50;94913.13;4194613;28;20123;-51
2022/06/17 07:14:57;;;;;;;12.63;7.25;;;;;;;21.63;52.18;94915.44;4207733;28;20059;-51
2022/06/17 07:16:59;;;;;;;11.85;6.82;;;;;;;21.73;52.18;94918.41;4209270;28;20082;-53
2022/06/17 07:19:01;;;;;;;8.70;6.22;;;;;;;21.74;52.25;94912.00;4199813;28;20391;-52
2022/06/17 07:21:06;;;;;;;9.38;6.38;;;;;;;21.81;51.67;94911.94;4204569;28;20055;-47
2022/06/17 07:23:13;;;;;;;9.55;6.72;;;;;;;21.73;51.13;94914.94;4216508;28;20108;-48
2022/06/17 07:25:15;;;;;;;13.88;7.47;;;;;;;21.79;51.31;94914.00;4209322;28;20060;-50
2022/06/17 07:27:18;;;;;;;11.55;6.47;;;;;;;22.05;51.21;94910.22;4208118;28;20434;-50
2022/06/17 07:29:19;;;;;;;9.63;7.03;;;;;;;22.25;50.89;94907.31;4194903;28;20048;-53
2022/06/17 07:31:22;;;;;;;15.10;8.82;;;;;;;22.02;51.38;94902.66;4208151;28;20048;-48
2022/06/17 07:33:26;;;;;;;11.82;7.55;;;;;;;22.04;51.32;94900.56;4207084;28;20075;-50
2022/06/17 07:35:28;;;;;;;26.80;12.32;;;;;;;22.00;51.27;94900.19;4201153;28;20044;-47
2022/06/17 07:39:58;;;;;;;12.57;7.07;;;;;;;22.23;51.37;94901.38;4197428;28;20363;-49
2022/06/17 07:41:59;;;;;;;17.23;8.85;;;;;;;22.45;50.90;94904.34;4207987;28;20092;-50
2022/06/17 07:44:01;;;;;;;12.40;7.43;;;;;;;22.43;50.43;94899.22;4197206;28;20064;-51
2022/06/17 07:46:04;;;;;;;10.63;6.90;;;;;;;22.36;51.00;94895.84;4190058;28;20446;-51
2022/06/17 07:48:06;;;;;;;9.48;6.40;;;;;;;22.31;51.20;94898.41;4195102;28;20058;-50
2022/06/17 07:50:13;;;;;;;10.48;7.30;;;;;;;22.47;51.39;94895.06;4203468;28;20064;-51
2022/06/17 07:52:15;;;;;;;17.48;9.60;;;;;;;22.59;50.81;94904.97;4219657;28;20058;-50
2022/06/17 07:54:18;;;;;;;13.47;8.33;;;;;;;22.39;50.92;94900.75;4211001;28;20105;-47
2022/06/17 07:56:25;;;;;;;12.52;8.48;;;;;;;22.41;51.13;94893.34;4217031;28;20376;-50
2022/06/17 07:58:27;;;;;;;13.75;8.50;;;;;;;22.20;51.11;94888.44;4193848;28;20451;-50
2022/06/17 08:00:47;;;;;;;17.05;8.88;;;;;;;22.15;52.14;94885.66;4206031;28;20125;-50
2022/06/17 08:02:49;;;;;;;15.00;8.63;;;;;;;22.20;51.74;94889.28;4222902;28;20064;-49
2022/06/17 08:04:51;;;;;;;15.23;8.30;;;;;;;22.17;52.68;94886.25;4208621;28;20142;-47
2022/06/17 08:06:52;;;;;;;13.00;7.85;;;;;;;22.47;51.65;94883.59;4216465;28;20075;-52
2022/06/17 08:09:03;;;;;;;10.93;7.18;;;;;;;22.75;50.73;94887.47;4221896;28;20459;-49
2022/06/17 08:11:05;;;;;;;11.85;7.97;;;;;;;23.03;50.17;94886.81;4207070;28;20056;-50
2022/06/17 08:13:08;;;;;;;11.57;7.70;;;;;;;23.27;49.78;94884.94;4207550;28;20142;-49
2022/06/17 08:15:12;;;;;;;13.13;8.88;;;;;;;23.49;49.11;94879.84;4207625;28;20044;-49
2022/06/17 08:17:15;;;;;;;12.00;9.15;;;;;;;23.45;48.97;94879.47;4208366;28;20048;-51
2022/06/17 08:19:17;;;;;;;;;;;;;;;23.31;49.56;94878.91;4219146;28;20052;-53
2022/06/17 08:21:18;;;;;;;12.23;8.05;;;;;;;23.55;49.71;94881.53;4219754;28;19984;-50
2022/06/17 08:23:40;;;;;;;16.08;8.35;;;;;;;23.84;49.46;94877.09;4204408;28;20062;-53
2022/06/17 08:25:42;;;;;;;11.32;8.07;;;;;;;24.10;48.52;94872.22;4207398;28;20541;-53
2022/06/17 08:27:50;;;;;;;11.60;7.93;;;;;;;24.33;48.18;94868.66;4204983;28;20135;-50
2022/06/17 08:29:51;;;;;;;13.10;8.20;;;;;;;24.52;47.89;94870.06;4198838;28;20145;-50
2022/06/17 08:31:53;;;;;;;9.77;7.82;;;;;;;24.67;47.57;94864.16;4205749;28;20557;-50
2022/06/17 08:33:55;;;;;;;10.48;8.20;;;;;;;24.82;47.56;94865.44;4210643;28;20058;-52
2022/06/17 08:36:00;;;;;;;14.50;7.43;;;;;;;24.79;46.57;94860.59;4207981;28;20056;-50
2022/06/17 08:38:09;;;;;;;22.48;7.47;;;;;;;24.87;46.75;94858.31;4211488;28;20040;-53
2022/06/17 08:40:25;;;;;;;41.85;9.27;;;;;;;24.75;46.20;94860.25;4206591;28;20109;-51
2022/06/17 08:42:47;;;;;;;11.52;7.32;;;;;;;24.43;47.14;94860.75;4211258;28;20496;-53
2022/06/17 08:45:17;;;;;;;11.45;7.22;;;;;;;24.62;47.09;94853.34;4207339;28;20150;-56
2022/06/17 08:47:43;;;;;;;22.65;9.20;;;;;;;24.85;46.69;94857.75;4202992;28;20382;-55
2022/06/17 08:50:12;;;;;;;14.20;8.68;;;;;;;24.89;46.37;94855.41;4201378;28;20393;-53
2022/06/17 08:52:38;;;;;;;11.43;7.40;;;;;;;24.29;47.12;94857.59;4222279;28;20096;-58
2022/06/17 08:54:50;;;;;;;10.82;7.80;;;;;;;24.00;47.63;94856.78;4211623;28;20051;-55
2022/06/17 08:57:13;;;;;;;11.75;7.15;;;;;;;24.19;48.20;94853.91;4210214;28;20056;-57
2022/06/17 08:59:25;;;;;;;12.17;8.03;;;;;;;24.46;47.52;94851.47;4197793;28;20055;-54
2022/06/17 09:01:44;;;;;;;10.15;7.35;;;;;;;24.75;47.10;94852.22;4198203;28;20546;-56
2022/06/17 09:04:33;;;;;;;11.95;7.40;;;;;;;24.78;46.82;94858.94;4200272;28;20056;-55
2022/06/17 09:06:52;;;;;;;14.48;8.32;;;;;;;24.77;46.20;94857.34;4196872;28;20056;-55
2022/06/17 09:09:26;;;;;;;10.30;7.68;;;;;;;24.40;46.86;94855.09;4199614;28;20230;-58
2022/06/17 09:11:43;;;;;;;12.15;8.20;;;;;;;24.40;47.18;94863.13;4187683;28;20050;-57
2022/06/17 09:13:54;;;;;;;14.30;7.93;;;;;;;24.64;47.26;94856.59;4202764;28;20048;-56
2022/06/17 09:15:59;;;;;;;11.32;7.53;;;;;;;24.75;46.01;94859.44;4208806;28;20449;-57
2022/06/17 09:18:27;;;;;;;9.52;6.55;;;;;;;25.07;45.48;94859.66;4194727;28;20052;-55
2022/06/17 09:20:37;;;;;;;17.23;7.75;;;;;;;25.36;45.13;94851.50;4200824;28;20109;-56
2022/06/17 09:22:53;;;;;;;13.20;7.05;;;;;;;25.44;44.18;94853.78;4219051;28;20461;-57
2022/06/17 09:24:59;;;;;;;11.30;7.05;;;;;;;25.38;44.72;94852.88;4208851;28;20056;-54
2022/06/17 09:27:03;;;;;;;15.70;6.70;;;;;;;25.38;45.21;94852.88;4210155;28;20063;-53
2022/06/17 09:29:22;;;;;;;13.15;6.75;;;;;;;25.08;45.12;94859.44;4210075;28;20044;-56
2022/06/17 09:31:32;;;;;;;13.82;7.03;;;;;;;24.51;44.73;94859.59;4204088;28;20121;-56
2022/06/17 09:33:37;;;;;;;13.27;6.13;;;;;;;24.46;45.38;94851.47;4193110;28;20068;-56
2022/06/17 09:36:23;;;;;;;11.68;6.63;;;;;;;24.78;45.42;94845.56;4206221;28;20470;-56
2022/06/17 09:38:45;;;;;;;10.93;6.45;;;;;;;24.76;45.19;94845.81;4198786;28;20085;-56
2022/06/17 09:40:53;;;;;;;9.20;6.60;;;;;;;24.80;44.86;94838.91;4205203;28;20044;-57
2022/06/17 09:43:07;;;;;;;10.65;6.72;;;;;;;24.80;44.77;94852.31;4195382;28;20048;-55
2022/06/17 09:45:15;;;;;;;7.68;5.90;;;;;;;25.01;44.65;94844.56;4208076;28;20446;-55
2022/06/17 09:47:24;;;;;;;9.82;6.25;;;;;;;25.17;45.55;94837.53;4203032;28;20048;-55
2022/06/17 09:49:37;;;;;;;10.50;6.53;;;;;;;25.47;44.49;94837.19;4216565;28;20479;-54
2022/06/17 09:52:00;;;;;;;11.63;6.75;;;;;;;25.77;43.80;94838.63;4209021;28;20040;-54